createdAt,value
2023-04-16T00:03:14.007Z,31.93
2023-04-16T00:07:13.785Z,27.79
2023-04-16T00:11:13.541Z,27.92
2023-04-16T00:15:13.638Z,28.71
2023-04-16T00:19:13.813Z,30.28
2023-04-16T00:23:14.293Z,32.12
2023-04-16T00:27:15.283Z,31.24
2023-04-16T00:31:14.105Z,30.31
2023-04-16T00:35:14.318Z,30.71
2023-04-16T00:39:14.290Z,31.65
2023-04-16T00:43:14.833Z,32.69
2023-04-16T00:47:14.968Z,29.21
2023-04-16T00:51:14.509Z,29.22
2023-04-16T00:55:14.820Z,32.98
2023-04-16T00:59:15.328Z,30.18
2023-04-16T01:03:14.914Z,30.75
2023-04-16T01:07:14.866Z,28.51
2023-04-16T01:11:14.888Z,28.35
2023-04-16T01:15:15.369Z,26.12
2023-04-16T01:19:15.095Z,27.08
2023-04-16T01:23:15.313Z,30.52
2023-04-16T01:27:15.359Z,26.57
2023-04-16T01:31:15.399Z,29.12
2023-04-16T01:35:15.842Z,30.95
2023-04-16T01:39:16.864Z,31.80
2023-04-16T01:43:15.840Z,28.11
2023-04-16T01:47:18.928Z,30.20
2023-04-16T01:51:15.730Z,30.26
2023-04-16T01:55:15.841Z,31.01
2023-04-16T01:59:15.686Z,26.25
2023-04-16T02:03:15.964Z,30.10
2023-04-16T02:07:15.875Z,28.14
2023-04-16T02:11:15.516Z,34.01
2023-04-16T02:15:15.838Z,30.57
2023-04-16T02:19:15.455Z,30.65
2023-04-16T02:23:16.853Z,26.63
2023-04-16T02:27:15.399Z,30.23
2023-04-16T02:31:15.400Z,27.94
2023-04-16T02:35:15.352Z,31.41
2023-04-16T02:39:15.380Z,30.24
2023-04-16T02:43:15.356Z,30.50
2023-04-16T02:47:15.189Z,27.67
2023-04-16T02:51:15.152Z,30.66
2023-04-16T02:55:15.344Z,28.96
2023-04-16T02:59:15.368Z,28.88
2023-04-16T03:03:15.384Z,27.89
2023-04-16T03:07:15.005Z,28.50
2023-04-16T03:11:14.956Z,27.90
2023-04-16T03:15:15.355Z,28.07
2023-04-16T03:19:15.356Z,29.43
2023-04-16T03:23:14.870Z,33.45
2023-04-16T03:27:14.931Z,27.40
2023-04-16T03:31:15.412Z,30.42
2023-04-16T03:35:15.124Z,27.82
2023-04-16T03:39:15.401Z,30.89
2023-04-16T03:43:15.405Z,33.10
2023-04-16T03:47:15.352Z,31.03
2023-04-16T03:51:15.450Z,28.01
2023-04-16T03:55:15.881Z,36.31
2023-04-16T03:59:15.892Z,32.33
2023-04-16T04:03:16.147Z,28.49
2023-04-16T04:07:15.779Z,33.54
2023-04-16T04:11:15.875Z,31.60
2023-04-16T04:15:15.998Z,29.49
2023-04-16T04:19:16.057Z,31.53
2023-04-16T04:23:16.159Z,31.56
2023-04-16T04:27:16.219Z,31.92
2023-04-16T04:31:16.347Z,27.45
2023-04-16T04:35:16.918Z,28.43
2023-04-16T04:39:16.894Z,27.08
2023-04-16T04:43:16.534Z,29.54
2023-04-16T04:47:17.393Z,33.82
2023-04-16T04:51:16.747Z,33.12
2023-04-16T04:55:16.914Z,34.29
2023-04-16T04:59:16.896Z,34.12
2023-04-16T05:03:16.970Z,32.91
2023-04-16T05:07:17.416Z,32.27
2023-04-16T05:11:17.130Z,32.08
2023-04-16T05:15:17.425Z,31.91
2023-04-16T05:19:17.451Z,28.53
2023-04-16T05:23:17.337Z,32.27
2023-04-16T05:27:18.431Z,32.19
2023-04-16T05:31:17.589Z,32.77
2023-04-16T05:35:17.971Z,30.05
2023-04-16T05:39:17.889Z,32.15
2023-04-16T05:43:17.732Z,35.34
2023-04-16T05:47:17.973Z,31.97
2023-04-16T05:51:17.889Z,33.23
2023-04-16T05:55:18.425Z,31.16
2023-04-16T05:59:18.446Z,30.58
2023-04-16T06:03:18.308Z,33.89
2023-04-16T06:07:18.428Z,31.76
2023-04-16T06:11:18.307Z,32.62
2023-04-16T06:15:18.452Z,35.39
2023-04-16T06:19:18.520Z,31.84
2023-04-16T06:23:18.609Z,29.43
2023-04-16T06:27:18.691Z,36.72
2023-04-16T06:31:18.809Z,28.82
2023-04-16T06:35:18.937Z,31.46
2023-04-16T06:39:18.969Z,27.89
2023-04-16T06:43:19.069Z,31.62
2023-04-16T06:47:19.457Z,32.28
2023-04-16T06:51:19.323Z,29.64
2023-04-16T06:55:19.460Z,32.54
2023-04-16T06:59:19.395Z,27.53
2023-04-16T07:03:20.082Z,29.75
2023-04-16T07:07:19.562Z,30.67
2023-04-16T07:11:19.950Z,32.13
2023-04-16T07:15:20.007Z,28.22
2023-04-16T07:19:19.820Z,28.51
2023-04-16T07:23:19.972Z,30.20
2023-04-16T07:27:20.004Z,28.26
2023-04-16T07:31:20.461Z,31.28
2023-04-16T07:35:20.486Z,37.05
2023-04-16T07:39:20.258Z,29.48
2023-04-16T07:43:20.474Z,27.03
2023-04-16T07:47:20.459Z,29.31
2023-04-16T07:51:20.965Z,34.52
2023-04-16T07:55:20.978Z,30.94
2023-04-16T07:59:23.676Z,32.98
2023-04-16T08:03:21.093Z,33.17
2023-04-16T08:07:20.583Z,30.51
2023-04-16T08:11:20.989Z,28.39
2023-04-16T08:15:20.497Z,26.73
2023-04-16T08:19:20.954Z,29.83
2023-04-16T08:23:20.485Z,27.34
2023-04-16T08:27:20.572Z,33.43
2023-04-16T08:31:20.586Z,27.98
2023-04-16T08:35:20.335Z,29.50
2023-04-16T08:39:20.291Z,31.70
2023-04-16T08:43:20.497Z,34.04
2023-04-16T08:47:20.283Z,30.64
2023-04-16T08:51:20.484Z,30.56
2023-04-16T08:55:20.154Z,25.00
2023-04-16T08:59:20.107Z,30.59
2023-04-16T09:03:20.656Z,31.38
2023-04-16T09:07:20.135Z,32.90
2023-04-16T09:11:20.499Z,36.68
2023-04-16T09:15:20.312Z,33.57
2023-04-16T09:19:20.491Z,36.19
2023-04-16T09:23:20.496Z,34.73
2023-04-16T09:27:21.001Z,27.30
2023-04-16T09:31:21.029Z,35.96
2023-04-16T09:35:20.775Z,37.89
2023-04-16T09:39:20.976Z,34.25
2023-04-16T09:43:20.946Z,33.20
2023-04-16T09:47:21.589Z,40.52
2023-04-16T09:51:21.147Z,38.53
2023-04-16T09:55:21.500Z,34.89
2023-04-16T09:59:21.328Z,41.71
2023-04-16T10:03:21.635Z,38.55
2023-04-16T10:07:21.532Z,35.53
2023-04-16T10:11:21.693Z,35.36
2023-04-16T10:15:21.697Z,35.13
2023-04-16T10:19:21.993Z,38.80
2023-04-16T10:23:21.926Z,38.31
2023-04-16T10:27:22.014Z,38.93
2023-04-16T10:31:22.145Z,39.10
2023-04-16T10:35:22.527Z,36.84
2023-04-16T10:39:22.366Z,39.40
2023-04-16T10:43:22.534Z,38.21
2023-04-16T10:47:23.036Z,40.70
2023-04-16T10:51:22.697Z,43.40
2023-04-16T10:55:23.038Z,41.22
2023-04-16T10:59:23.030Z,44.33
2023-04-16T11:03:23.180Z,41.21
2023-04-16T11:07:23.122Z,41.66
2023-04-16T11:11:23.243Z,40.92
2023-04-16T11:15:23.574Z,41.21
2023-04-16T11:19:23.551Z,42.51
2023-04-16T11:23:23.615Z,43.40
2023-04-16T11:27:24.069Z,40.31
2023-04-16T11:31:23.820Z,41.08
2023-04-16T11:35:24.026Z,35.10
2023-04-16T11:39:24.034Z,37.47
2023-04-16T11:43:24.531Z,38.98
2023-04-16T11:47:24.434Z,42.47
2023-04-16T11:51:24.548Z,38.79
2023-04-16T11:55:24.581Z,42.74
2023-04-16T11:59:24.677Z,38.68
2023-04-16T12:03:24.974Z,38.17
2023-04-16T12:07:24.875Z,34.36
2023-04-16T12:11:25.074Z,40.04
2023-04-16T12:15:25.581Z,32.93
2023-04-16T12:19:25.541Z,41.24
2023-04-16T12:23:25.320Z,37.56
2023-04-16T12:27:25.504Z,38.36
2023-04-16T12:31:25.605Z,36.67
2023-04-16T12:35:26.066Z,37.43
2023-04-16T12:39:25.713Z,37.34
2023-04-16T12:43:26.158Z,33.32
2023-04-16T12:47:26.004Z,36.53
2023-04-16T12:51:26.093Z,37.22
2023-04-16T12:55:26.555Z,35.42
2023-04-16T12:59:26.372Z,38.27
2023-04-16T13:03:33.748Z,39.27
2023-04-16T13:07:26.384Z,40.43
2023-04-16T13:11:26.594Z,37.28
2023-04-16T13:15:26.305Z,40.20
2023-04-16T13:19:26.575Z,41.19
2023-04-16T13:23:26.617Z,33.42
2023-04-16T13:27:26.215Z,30.68
2023-04-16T13:31:26.468Z,37.73
2023-04-16T13:35:26.602Z,39.58
2023-04-16T13:39:27.129Z,39.75
2023-04-16T13:43:26.784Z,35.16
2023-04-16T13:47:27.144Z,38.17
2023-04-16T13:51:27.099Z,37.79
2023-04-16T13:55:27.606Z,36.03
2023-04-16T13:59:27.591Z,37.42
2023-04-16T14:03:27.668Z,41.03
2023-04-16T14:07:28.085Z,35.85
2023-04-16T14:11:27.859Z,38.39
2023-04-16T14:15:28.090Z,36.59
2023-04-16T14:19:28.617Z,36.62
2023-04-16T14:23:28.319Z,40.47
2023-04-16T14:27:28.597Z,38.76
2023-04-16T14:31:28.676Z,42.22
2023-04-16T14:35:29.140Z,39.47
2023-04-16T14:39:29.098Z,36.79
2023-04-16T14:43:29.055Z,35.12
2023-04-16T14:47:29.604Z,35.28
2023-04-16T14:51:29.352Z,38.85
2023-04-16T14:55:29.651Z,35.20
2023-04-16T14:59:30.157Z,36.99
2023-04-16T15:03:29.859Z,36.38
2023-04-16T15:07:30.166Z,39.18
2023-04-16T15:11:30.076Z,37.61
2023-04-16T15:15:30.639Z,36.26
2023-04-16T15:19:30.347Z,35.09
2023-04-16T15:23:30.644Z,39.59
2023-04-16T15:27:30.620Z,36.66
2023-04-16T15:31:31.213Z,38.03
2023-04-16T15:35:30.828Z,37.72
2023-04-16T15:39:31.011Z,36.60
2023-04-16T15:43:31.112Z,40.09
2023-04-16T15:47:31.286Z,39.23
2023-04-16T15:51:31.686Z,40.13
2023-04-16T15:55:31.650Z,36.77
2023-04-16T15:59:31.637Z,37.36
2023-04-16T16:03:31.842Z,37.13
2023-04-16T16:07:32.155Z,34.03
2023-04-16T16:11:32.161Z,37.91
2023-04-16T16:15:32.222Z,38.99
2023-04-16T16:19:32.365Z,35.72
2023-04-16T16:23:32.664Z,36.98
2023-04-16T16:27:33.193Z,37.44
2023-04-16T16:31:32.883Z,36.95
2023-04-16T16:35:33.143Z,36.90
2023-04-16T16:39:33.082Z,34.91
2023-04-16T16:43:33.685Z,36.31
2023-04-16T16:47:33.644Z,33.03
2023-04-16T16:51:33.458Z,37.09
2023-04-16T16:55:33.624Z,36.33
2023-04-16T16:59:34.161Z,38.39
2023-04-16T17:03:34.001Z,37.05
2023-04-16T17:07:34.165Z,37.51
2023-04-16T17:11:34.192Z,41.75
2023-04-16T17:15:34.324Z,40.95
2023-04-16T17:19:34.703Z,38.47
2023-04-16T17:23:34.620Z,35.68
2023-04-16T17:27:35.177Z,36.19
2023-04-16T17:31:34.941Z,36.01
2023-04-16T17:35:35.078Z,37.31
2023-04-16T17:39:35.661Z,37.36
2023-04-16T17:43:35.376Z,36.49
2023-04-16T17:47:35.745Z,41.52
2023-04-16T17:51:35.661Z,41.53
2023-04-16T17:55:35.793Z,36.70
2023-04-16T17:59:35.966Z,39.29
2023-04-16T18:03:36.221Z,38.27
2023-04-16T18:07:36.208Z,40.27
2023-04-16T18:11:36.686Z,37.63
2023-04-16T18:15:36.527Z,36.83
2023-04-16T18:19:36.704Z,40.25
2023-04-16T18:23:36.799Z,37.82
2023-04-16T18:27:37.303Z,38.83
2023-04-16T18:31:37.109Z,36.86
2023-04-16T18:35:37.720Z,38.74
2023-04-16T18:39:37.708Z,37.97
2023-04-16T18:43:37.680Z,35.13
2023-04-16T18:47:37.693Z,35.27
2023-04-16T18:51:37.844Z,36.71
2023-04-16T18:55:38.214Z,34.85
2023-04-16T18:59:38.216Z,37.95
2023-04-16T19:03:38.471Z,37.51
2023-04-16T19:07:38.705Z,38.14
2023-04-16T19:11:38.523Z,37.67
2023-04-16T19:15:39.210Z,39.45
2023-04-16T19:19:39.215Z,35.56
2023-04-16T19:23:39.226Z,36.24
2023-04-16T19:27:39.195Z,40.76
2023-04-16T19:31:39.418Z,38.57
2023-04-16T19:35:39.726Z,36.36
2023-04-16T19:39:39.750Z,34.71
2023-04-16T19:43:39.687Z,38.25
2023-04-16T19:47:39.869Z,37.76
2023-04-16T19:51:39.933Z,37.30
2023-04-16T19:55:40.220Z,41.43
2023-04-16T19:59:40.275Z,39.74
2023-04-16T20:03:40.470Z,41.97
2023-04-16T20:07:40.729Z,41.52
2023-04-16T20:11:40.648Z,37.11
2023-04-16T20:15:41.232Z,33.04
2023-04-16T20:19:41.235Z,39.09
2023-04-16T20:23:41.221Z,38.28
2023-04-16T20:27:41.227Z,37.13
2023-04-16T20:31:41.336Z,35.04
2023-04-16T20:35:41.735Z,39.47
2023-04-16T20:39:41.729Z,38.86
2023-04-16T20:43:41.750Z,36.21
2023-04-16T20:47:42.290Z,37.18
2023-04-16T20:51:42.113Z,38.62
2023-04-16T20:55:42.748Z,38.77
2023-04-16T20:59:42.388Z,36.12
2023-04-16T21:03:42.654Z,40.72
2023-04-16T21:07:42.704Z,37.98
2023-04-16T21:11:43.273Z,39.46
2023-04-16T21:15:43.318Z,37.75
2023-04-16T21:19:43.137Z,40.14
2023-04-16T21:23:43.750Z,39.64
2023-04-16T21:27:43.394Z,39.72
2023-04-16T21:31:43.784Z,40.93
2023-04-16T21:35:43.713Z,40.60
2023-04-16T21:39:43.873Z,38.71
2023-04-16T21:43:44.267Z,41.93
2023-04-16T21:47:44.192Z,36.60
2023-04-16T21:51:44.774Z,37.63
2023-04-16T21:55:44.462Z,41.57
2023-04-16T21:59:44.776Z,38.20
2023-04-16T22:03:44.791Z,38.61
2023-04-16T22:07:44.805Z,40.76
2023-04-16T22:11:45.271Z,38.99
2023-04-16T22:15:45.061Z,36.72
2023-04-16T22:19:45.187Z,38.44
2023-04-16T22:23:45.775Z,38.27
2023-04-16T22:27:45.448Z,38.23
2023-04-16T22:31:45.858Z,39.50
2023-04-16T22:35:45.781Z,38.50
2023-04-16T22:39:46.258Z,39.24
2023-04-16T22:43:46.004Z,38.46
2023-04-16T22:47:46.335Z,39.32
2023-04-16T22:51:46.268Z,40.11
2023-04-16T22:55:46.429Z,39.02
2023-04-16T22:59:46.786Z,37.28
2023-04-16T23:03:46.817Z,40.44
2023-04-16T23:07:47.297Z,44.56
2023-04-16T23:11:47.306Z,38.32
2023-04-16T23:15:47.488Z,41.15
2023-04-16T23:19:47.326Z,39.87
2023-04-16T23:23:47.335Z,41.58
2023-04-16T23:27:47.465Z,38.89
2023-04-16T23:31:47.933Z,39.82
2023-04-16T23:35:47.717Z,43.95
2023-04-16T23:39:48.302Z,44.15
2023-04-16T23:43:47.925Z,39.01
2023-04-16T23:47:48.376Z,40.32
2023-04-16T23:51:48.300Z,41.73
2023-04-16T23:55:48.288Z,42.25
2023-04-16T23:59:48.864Z,43.17
